Meyersville, Texas
Current Conditions -  °F | °C
As of 11:51 AM on Thursday 27 Nov 2014 (Local Time) from KVCT Reporting Station
Clear Clear  
Wind Chill: 66°   Ceiling: Unl
Heat Index: 66°   Visibility: 10mi
Dew Point: 38°   Wind: 10mph
Humidity: 36%   Direction: 40°NE
Pressure: 30.47"   Gusts: NA
Location:  28.93°N, 97.31°W
Report Text: KVCT 271751Z 04009KT 10SM CLR 19/03 A3047 RMK AO2 SLP318 T01890033 10189 20067 58003
Loading
Personal Weather Stations






























Interactive Weather Map New forecast layout! Learn more

10-Day Weather Forecast

Advertisements
Track Severe Weather on mobile